Stena Germanica — SKPZ — position and weather

sailwx.info

Track history (hours):
 
Tides and Currents Weather Stations Pressure Air Temp Water Temp Dewpoint Dewpoint Depression Visibility Wind Speed Wind Dir Waves Ship Positions

Stena Germanica

Last reported at 2016-Feb-08 23:30 UTC. Time now 2016-Feb-09 01:29 UTC.
Position N 55°06' E 018°17'.

Length 176 m; draft 6.4 m.

Type: Passenger vessel. MMSI: 265292000.

Date/timePositionNaut miles runAvg speedWind from/ knotsBaromVisibWave heightAir tempDewpointWater temp
2016-Feb-08 23:30N 55°06' E 018°17'1818.8
2016-Feb-08 22:33N 54°54' E 018°39'1818.4
2016-Feb-08 21:33N 54°39' E 018°57'1414.1
2016-Feb-08 20:33N 54°32' E 018°35'3 2.8
2016-Feb-08 19:33N 54°33' E 018°30'0 0.0
2016-Feb-08 18:33N 54°33' E 018°30'7 7.1
2016-Feb-08 17:33N 54°32' E 018°42'1313.4
2016-Feb-08 16:33N 54°44' E 018°51'1817.9
2016-Feb-08 15:33N 54°58' E 018°31'1817.9
2016-Feb-08 14:33N 55°08' E 018°04'10317.1
2016-Feb-08 08:31N 56°08' E 015°36'1 0.7
2016-Feb-08 06:33N 56°10' E 015°37'11416.2
2016-Feb-07 23:33N 55°02' E 018°19'1717.2
2016-Feb-07 22:33N 54°51' E 018°42'1615.9
2016-Feb-07 21:33N 54°37' E 018°55'1313.5
2016-Feb-07 20:34N 54°32' E 018°34'2 2.2
2016-Feb-07 19:32N 54°33' E 018°30'0 0.0
2016-Feb-07 18:32N 54°33' E 018°30'7 7.1
2016-Feb-07 17:33N 54°32' E 018°42'1313.5
2016-Feb-07 16:34N 54°44' E 018°52'1817.8
2016-Feb-07 15:33N 54°58' E 018°31'2017.9
2016-Feb-07 14:25N 55°09' E 018°02'10117.0
2016-Feb-07 08:29N 56°07' E 015°35'2 1.2
2016-Feb-07 06:31N 56°10' E 015°37'1313.1
2016-Feb-07 05:31N 55°58' E 015°50'10016.8
2016-Feb-06 23:33N 55°04' E 018°18'1717.2
2016-Feb-06 22:33N 54°52' E 018°41'1716.6
2016-Feb-06 21:33N 54°39' E 018°57'1313.5
2016-Feb-06 20:34N 54°32' E 018°37'4 3.7
2016-Feb-06 19:33N 54°33' E 018°30'0 0.0
2016-Feb-06 18:33N 54°33' E 018°30'7 7.1
2016-Feb-06 17:33N 54°32' E 018°42'1313.5
2016-Feb-06 16:34N 54°45' E 018°51'1818.3
2016-Feb-06 15:33N 54°58' E 018°30'1918.3
2016-Feb-06 14:30N 55°09' E 018°02'10117.0
2016-Feb-06 08:33N 56°08' E 015°36'1 0.7
2016-Feb-06 06:33N 56°10' E 015°37'11015.8
2016-Feb-05 23:33N 55°07' E 018°19'1716.9
2016-Feb-05 22:34N 54°54' E 018°38'1716.9
2016-Feb-05 21:34N 54°41' E 018°57'1413.5
2016-Feb-05 20:33N 54°32' E 018°40'6 5.7
2016-Feb-05 19:33N 54°33' E 018°30'0 0.0
2016-Feb-05 18:33N 54°33' E 018°30'8 7.8
2016-Feb-05 17:33N 54°32' E 018°44'1514.7
2016-Feb-05 16:33N 54°46' E 018°50'1919.5
2016-Feb-05 15:33N 55°00' E 018°27'11816.8
2016-Feb-05 08:33N 56°07' E 015°35'3 1.2
2016-Feb-05 06:29N 56°10' E 015°37'10117.1
2016-Feb-05 00:33N 55°07' E 017°59'1818.2
2016-Feb-04 23:33N 54°57' E 018°25'1818.0
2016-Feb-04 22:34N 54°47' E 018°51'1515.0
2016-Feb-04 21:34N 54°32' E 018°49'1110.6
2016-Feb-04 20:32N 54°33' E 018°30'0 0.0
2016-Feb-04 19:32N 54°33' E 018°30'7 7.4
2016-Feb-04 18:34N 54°32' E 018°43'1413.7
2016-Feb-04 17:34N 54°45' E 018°52'1817.9
2016-Feb-04 16:34N 54°58' E 018°31'2318.0
2016-Feb-04 15:16N 55°12' E 017°58'9817.1
2016-Feb-04 09:32N 56°09' E 015°36'1 0.6
2016-Feb-04 07:32N 56°10' E 015°37'10417.3
2016-Feb-04 01:30N 55°08' E 018°06'1717.8
2016-Feb-04 00:33N 54°59' E 018°31'1818.2
2016-Feb-03 23:33N 54°49' E 018°57'1716.6
2016-Feb-03 22:33N 54°33' E 018°50'1111.2
2016-Feb-03 21:33N 54°33' E 018°30'0 0.0
2016-Feb-03 20:33N 54°33' E 018°30'3 3.3
2016-Feb-03 19:33N 54°32' E 018°36'1514.6
2016-Feb-03 18:33N 54°42' E 018°54'2020.1
2016-Feb-03 17:33N 54°57' E 018°31'2120.2
2016-Feb-03 16:32N 55°07' E 017°59'10112.6
2016-Feb-03 08:33N 56°06' E 015°34'10513.0
2016-Feb-03 00:30N 54°59' E 017°57'1313.9
2016-Feb-02 23:34N 54°56' E 018°19'1515.1
2016-Feb-02 22:33N 54°48' E 018°42'1515.1
2016-Feb-02 21:33N 54°34' E 018°53'1313.0
2016-Feb-02 20:33N 54°33' E 018°30'0 0.0
2016-Feb-02 19:33N 54°33' E 018°30'2 2.3
2016-Feb-02 18:34N 54°32' E 018°34'1515.0
2016-Feb-02 17:33N 54°40' E 018°56'2019.8
2016-Feb-02 16:34N 54°56' E 018°35'12416.7
2016-Feb-02 09:07N 56°07' E 015°35'10011.3
2016-Feb-02 00:16N 55°02' E 017°50'1116.0
2016-Feb-01 23:34N 54°58' E 018°07'1515.2
2016-Feb-01 22:34N 54°52' E 018°31'1717.1
2016-Feb-01 21:33N 54°42' E 018°56'1414.5
2016-Feb-01 20:34N 54°32' E 018°37'4 3.9
2016-Feb-01 19:33N 54°33' E 018°30'0 0.0
2016-Feb-01 18:33N 54°33' E 018°30'7 7.0
2016-Feb-01 17:33N 54°32' E 018°42'1313.0
2016-Feb-01 16:33N 54°44' E 018°52'1716.6
2016-Feb-01 15:33N 54°57' E 018°34'1716.7
2016-Feb-01 14:33N 55°06' E 018°09'10713.3
2016-Feb-01 06:33N 56°08' E 015°36'10514.9
2016-Jan-31 23:33N 55°07' E 018°07'1616.3
2016-Jan-31 22:34N 54°58' E 018°30'1717.2
2016-Jan-31 21:34N 54°46' E 018°52'1514.9
2016-Jan-31 20:34N 54°32' E 018°46'9 9.0
2016-Jan-31 19:32N 54°33' E 018°30'0 0.0
2016-Jan-31 18:32N 54°33' E 018°30'7 7.5
2016-Jan-31 17:33N 54°32' E 018°43'1313.4
2016-Jan-31 16:33N 54°45' E 018°51'1817.7
2016-Jan-31 15:33N 54°58' E 018°31'12116.2
2016-Jan-31 08:05N 56°08' E 015°36'0 0.2
2016-Jan-31 06:33N 56°09' E 015°36'9515.8
2016-Jan-31 00:32N 55°11' E 017°51'1717.4
2016-Jan-30 23:33N 55°02' E 018°16'1717.3
2016-Jan-30 22:33N 54°52' E 018°40'1717.1
2016-Jan-30 21:33N 54°37' E 018°56'1414.4
2016-Jan-30 20:33N 54°32' E 018°32'1 1.4
2016-Jan-30 19:32N 54°33' E 018°30'0 0.0
2016-Jan-30 18:32N 54°33' E 018°30'9 9.6
2016-Jan-30 17:33N 54°32' E 018°46'1615.8
2016-Jan-30 16:33N 54°48' E 018°48'1918.8
2016-Jan-30 15:33N 55°03' E 018°27'11715.8
2016-Jan-30 08:11N 56°07' E 015°35'3 1.5
2016-Jan-30 06:28N 56°10' E 015°37'  
Track history (hours):
 
Tides and Currents Weather Stations Pressure Air Temp Water Temp Dewpoint Dewpoint Depression Visibility Wind Speed Wind Dir Waves Ship Positions

Stena Germanica

Last reported at 2016-Feb-08 23:30 UTC. Time now 2016-Feb-09 01:29 UTC.
Position N 55°06' E 018°17'.

Length 176 m; draft 6.4 m.

Type: Passenger vessel. MMSI: 265292000.

Date/timePositionNaut miles runAvg speedWind from/ knotsBaromVisibWave heightAir tempDewpointWater temp
2016-Feb-08 23:30N 55°06' E 018°17'1818.8
2016-Feb-08 22:33N 54°54' E 018°39'1818.4
2016-Feb-08 21:33N 54°39' E 018°57'1414.1
2016-Feb-08 20:33N 54°32' E 018°35'3 2.8
2016-Feb-08 19:33N 54°33' E 018°30'0 0.0
2016-Feb-08 18:33N 54°33' E 018°30'7 7.1
2016-Feb-08 17:33N 54°32' E 018°42'1313.4
2016-Feb-08 16:33N 54°44' E 018°51'1817.9
2016-Feb-08 15:33N 54°58' E 018°31'1817.9
2016-Feb-08 14:33N 55°08' E 018°04'10317.1
2016-Feb-08 08:31N 56°08' E 015°36'1 0.7
2016-Feb-08 06:33N 56°10' E 015°37'11416.2
2016-Feb-07 23:33N 55°02' E 018°19'1717.2
2016-Feb-07 22:33N 54°51' E 018°42'1615.9
2016-Feb-07 21:33N 54°37' E 018°55'1313.5
2016-Feb-07 20:34N 54°32' E 018°34'2 2.2
2016-Feb-07 19:32N 54°33' E 018°30'0 0.0
2016-Feb-07 18:32N 54°33' E 018°30'7 7.1
2016-Feb-07 17:33N 54°32' E 018°42'1313.5
2016-Feb-07 16:34N 54°44' E 018°52'1817.8
2016-Feb-07 15:33N 54°58' E 018°31'2017.9
2016-Feb-07 14:25N 55°09' E 018°02'10117.0
2016-Feb-07 08:29N 56°07' E 015°35'2 1.2
2016-Feb-07 06:31N 56°10' E 015°37'1313.1
2016-Feb-07 05:31N 55°58' E 015°50'10016.8
2016-Feb-06 23:33N 55°04' E 018°18'1717.2
2016-Feb-06 22:33N 54°52' E 018°41'1716.6
2016-Feb-06 21:33N 54°39' E 018°57'1313.5
2016-Feb-06 20:34N 54°32' E 018°37'4 3.7
2016-Feb-06 19:33N 54°33' E 018°30'0 0.0
2016-Feb-06 18:33N 54°33' E 018°30'7 7.1
2016-Feb-06 17:33N 54°32' E 018°42'1313.5
2016-Feb-06 16:34N 54°45' E 018°51'1818.3
2016-Feb-06 15:33N 54°58' E 018°30'1918.3
2016-Feb-06 14:30N 55°09' E 018°02'10117.0
2016-Feb-06 08:33N 56°08' E 015°36'1 0.7
2016-Feb-06 06:33N 56°10' E 015°37'11015.8
2016-Feb-05 23:33N 55°07' E 018°19'1716.9
2016-Feb-05 22:34N 54°54' E 018°38'1716.9
2016-Feb-05 21:34N 54°41' E 018°57'1413.5
2016-Feb-05 20:33N 54°32' E 018°40'6 5.7
2016-Feb-05 19:33N 54°33' E 018°30'0 0.0
2016-Feb-05 18:33N 54°33' E 018°30'8 7.8
2016-Feb-05 17:33N 54°32' E 018°44'1514.7
2016-Feb-05 16:33N 54°46' E 018°50'1919.5
2016-Feb-05 15:33N 55°00' E 018°27'11816.8
2016-Feb-05 08:33N 56°07' E 015°35'3 1.2
2016-Feb-05 06:29N 56°10' E 015°37'10117.1
2016-Feb-05 00:33N 55°07' E 017°59'1818.2
2016-Feb-04 23:33N 54°57' E 018°25'1818.0
2016-Feb-04 22:34N 54°47' E 018°51'1515.0
2016-Feb-04 21:34N 54°32' E 018°49'1110.6
2016-Feb-04 20:32N 54°33' E 018°30'0 0.0
2016-Feb-04 19:32N 54°33' E 018°30'7 7.4
2016-Feb-04 18:34N 54°32' E 018°43'1413.7
2016-Feb-04 17:34N 54°45' E 018°52'1817.9
2016-Feb-04 16:34N 54°58' E 018°31'2318.0
2016-Feb-04 15:16N 55°12' E 017°58'9817.1
2016-Feb-04 09:32N 56°09' E 015°36'1 0.6
2016-Feb-04 07:32N 56°10' E 015°37'10417.3
2016-Feb-04 01:30N 55°08' E 018°06'1717.8
2016-Feb-04 00:33N 54°59' E 018°31'1818.2
2016-Feb-03 23:33N 54°49' E 018°57'1716.6
2016-Feb-03 22:33N 54°33' E 018°50'1111.2
2016-Feb-03 21:33N 54°33' E 018°30'0 0.0
2016-Feb-03 20:33N 54°33' E 018°30'3 3.3
2016-Feb-03 19:33N 54°32' E 018°36'1514.6
2016-Feb-03 18:33N 54°42' E 018°54'2020.1
2016-Feb-03 17:33N 54°57' E 018°31'2120.2
2016-Feb-03 16:32N 55°07' E 017°59'10112.6
2016-Feb-03 08:33N 56°06' E 015°34'10513.0
2016-Feb-03 00:30N 54°59' E 017°57'1313.9
2016-Feb-02 23:34N 54°56' E 018°19'1515.1
2016-Feb-02 22:33N 54°48' E 018°42'1515.1
2016-Feb-02 21:33N 54°34' E 018°53'1313.0
2016-Feb-02 20:33N 54°33' E 018°30'0 0.0
2016-Feb-02 19:33N 54°33' E 018°30'2 2.3
2016-Feb-02 18:34N 54°32' E 018°34'1515.0
2016-Feb-02 17:33N 54°40' E 018°56'2019.8
2016-Feb-02 16:34N 54°56' E 018°35'12416.7
2016-Feb-02 09:07N 56°07' E 015°35'10011.3
2016-Feb-02 00:16N 55°02' E 017°50'1116.0
2016-Feb-01 23:34N 54°58' E 018°07'1515.2
2016-Feb-01 22:34N 54°52' E 018°31'1717.1
2016-Feb-01 21:33N 54°42' E 018°56'1414.5
2016-Feb-01 20:34N 54°32' E 018°37'4 3.9
2016-Feb-01 19:33N 54°33' E 018°30'0 0.0
2016-Feb-01 18:33N 54°33' E 018°30'7 7.0
2016-Feb-01 17:33N 54°32' E 018°42'1313.0
2016-Feb-01 16:33N 54°44' E 018°52'1716.6
2016-Feb-01 15:33N 54°57' E 018°34'1716.7
2016-Feb-01 14:33N 55°06' E 018°09'10713.3
2016-Feb-01 06:33N 56°08' E 015°36'10514.9
2016-Jan-31 23:33N 55°07' E 018°07'1616.3
2016-Jan-31 22:34N 54°58' E 018°30'1717.2
2016-Jan-31 21:34N 54°46' E 018°52'1514.9
2016-Jan-31 20:34N 54°32' E 018°46'9 9.0
2016-Jan-31 19:32N 54°33' E 018°30'0 0.0
2016-Jan-31 18:32N 54°33' E 018°30'7 7.5
2016-Jan-31 17:33N 54°32' E 018°43'1313.4
2016-Jan-31 16:33N 54°45' E 018°51'1817.7
2016-Jan-31 15:33N 54°58' E 018°31'12116.2
2016-Jan-31 08:05N 56°08' E 015°36'0 0.2
2016-Jan-31 06:33N 56°09' E 015°36'9515.8
2016-Jan-31 00:32N 55°11' E 017°51'1717.4
2016-Jan-30 23:33N 55°02' E 018°16'1717.3
2016-Jan-30 22:33N 54°52' E 018°40'1717.1
2016-Jan-30 21:33N 54°37' E 018°56'1414.4
2016-Jan-30 20:33N 54°32' E 018°32'1 1.4
2016-Jan-30 19:32N 54°33' E 018°30'0 0.0
2016-Jan-30 18:32N 54°33' E 018°30'9 9.6
2016-Jan-30 17:33N 54°32' E 018°46'1615.8
2016-Jan-30 16:33N 54°48' E 018°48'1918.8
2016-Jan-30 15:33N 55°03' E 018°27'11715.8
2016-Jan-30 08:11N 56°07' E 015°35'3 1.5
2016-Jan-30 06:28N 56°10' E 015°37'  

Dump ship's entire track history